Time;durP1;ratioP1;P1;durP2;ratioP2;P2;SDS_P1;SDS_P2;PMS_P1;PMS_P2;Temp;Humidity;BMP_temperature;BMP_pressure;BME280_temperature;BME280_humidity;BME280_pressure;Samples;Min_cycle;Max_cycle;Signal;HPM_P1;HPM_P2
2023/10/05 00:00:38;;;;;;;5.60;3.10;;;7.20;43.10;;;;;;5004194;28;46368;-80
2023/10/05 00:03:05;;;;;;;6.07;3.10;;;7.20;43.10;;;;;;5020677;28;46424;-79
2023/10/05 00:05:36;;;;;;;7.83;3.57;;;7.20;43.10;;;;;;5021045;28;46721;-81
2023/10/05 00:08:05;;;;;;;6.30;3.50;;;7.20;43.30;;;;;;5019063;28;46675;-80
2023/10/05 00:10:33;;;;;;;9.00;3.37;;;7.10;43.30;;;;;;5003488;28;47175;-80
2023/10/05 00:13:07;;;;;;;7.43;3.23;;;7.30;43.50;;;;;;5020084;28;45923;-82
2023/10/05 00:15:36;;;;;;;4.63;2.80;;;7.10;43.40;;;;;;5020783;28;46471;-81
2023/10/05 00:18:03;;;;;;;10.53;3.00;;;7.10;43.60;;;;;;5010490;28;48064;-80
2023/10/05 00:20:34;;;;;;;5.70;2.77;;;7.00;43.80;;;;;;5018341;28;46855;-79
2023/10/05 00:23:02;;;;;;;5.67;2.77;;;7.00;43.90;;;;;;5019875;28;46413;-80
2023/10/05 00:25:32;;;;;;;6.13;2.80;;;6.90;44.00;;;;;;5003450;28;46389;-80
2023/10/05 00:28:00;;;;;;;7.63;3.50;;;6.90;44.10;;;;;;5018851;28;46904;-79
2023/10/05 00:30:26;;;;;;;8.43;3.00;;;6.80;44.10;;;;;;5019947;28;46405;-79
2023/10/05 00:32:58;;;;;;;10.07;3.10;;;6.80;44.10;;;;;;5019769;28;46500;-80
2023/10/05 00:35:28;;;;;;;11.13;2.80;;;6.80;43.90;;;;;;5022683;28;46714;-80
2023/10/05 00:37:57;;;;;;;8.00;3.10;;;6.80;43.80;;;;;;5001957;28;48262;-79
2023/10/05 00:40:42;;;;;;;4.50;2.37;;;6.80;43.90;;;;;;5019099;28;47453;-81
2023/10/05 00:43:19;;;;;;;7.83;3.03;;;6.70;43.80;;;;;;5018987;28;46639;-79
2023/10/05 00:45:47;;;;;;;5.37;2.40;;;6.70;43.90;;;;;;5019380;28;46941;-80
2023/10/05 00:51:23;;;;;;;5.20;2.83;;;6.60;44.10;;;;;;4989174;28;46797;-79
2023/10/05 00:53:50;;;;;;;11.27;2.87;;;6.50;44.00;;;;;;5018022;28;46547;-80
2023/10/05 00:56:16;;;;;;;5.97;2.40;;;6.50;44.10;;;;;;5018564;28;46465;-79
2023/10/05 00:58:44;;;;;;;4.17;2.50;;;6.50;44.10;;;;;;5017100;28;49248;-80
2023/10/05 01:01:22;;;;;;;9.17;2.60;;;6.40;44.00;;;;;;5020545;28;46919;-81
2023/10/05 01:04:20;;;;;;;7.00;2.40;;;6.40;44.20;;;;;;5019861;28;45947;-81
2023/10/05 01:06:55;;;;;;;5.53;2.63;;;6.30;44.20;;;;;;5020661;28;46857;-81
2023/10/05 01:12:00;;;;;;;6.57;2.60;;;6.20;44.40;;;;;;5025258;28;46585;-80
2023/10/05 01:14:45;;;;;;;8.17;3.40;;;6.30;44.70;;;;;;5025008;28;46609;-82
2023/10/05 01:17:11;;;;;;;5.97;2.90;;;6.10;44.60;;;;;;5022062;28;46814;-82
2023/10/05 01:19:39;;;;;;;6.17;2.60;;;6.10;44.60;;;;;;5023937;28;46770;-83
2023/10/05 01:22:10;;;;;;;4.00;2.43;;;6.10;44.60;;;;;;5021572;28;46519;-82
2023/10/05 01:24:36;;;;;;;6.43;2.57;;;6.10;44.70;;;;;;5022694;28;46698;-83
2023/10/05 01:27:03;;;;;;;5.50;3.20;;;6.10;44.60;;;;;;5024903;28;46492;-81
2023/10/05 01:29:29;;;;;;;6.60;2.70;;;6.10;44.60;;;;;;5024246;28;46512;-82
2023/10/05 01:31:56;;;;;;;6.23;3.00;;;6.10;44.70;;;;;;5021901;28;46481;-81
2023/10/05 01:34:21;;;;;;;7.93;3.50;;;6.20;44.70;;;;;;5020300;28;46798;-80
2023/10/05 01:36:47;;;;;;;6.67;3.17;;;6.20;44.70;;;;;;5018375;28;46361;-81
2023/10/05 01:39:13;;;;;;;6.67;3.20;;;6.20;44.70;;;;;;4999786;28;49509;-80
2023/10/05 01:41:38;;;;;;;6.83;3.50;;;6.20;44.70;;;;;;5001377;28;46469;-80
2023/10/05 01:44:04;;;;;;;7.70;3.47;;;6.20;44.60;;;;;;5000173;28;46467;-80
2023/10/05 01:46:34;;;;;;;7.83;3.73;;;6.20;44.60;;;;;;4997984;28;46546;-82
2023/10/05 01:48:59;;;;;;;6.80;3.50;;;6.20;44.70;;;;;;5016398;28;46471;-80
2023/10/05 01:51:25;;;;;;;8.83;3.63;;;6.20;44.70;;;;;;5018413;28;46368;-81
2023/10/05 01:53:56;;;;;;;7.63;3.40;;;6.20;44.80;;;;;;5017906;28;46951;-80
2023/10/05 01:56:22;;;;;;;8.97;4.40;;;6.20;44.80;;;;;;5001994;28;46545;-81
2023/10/05 01:58:52;;;;;;;7.73;3.00;;;6.20;44.90;;;;;;5000306;28;48021;-80
2023/10/05 02:01:24;;;;;;;7.50;3.27;;;6.20;45.00;;;;;;5016816;28;46722;-80
2023/10/05 02:03:55;;;;;;;11.40;3.87;;;6.20;45.20;;;;;;4998790;28;46760;-79
2023/10/05 02:06:21;;;;;;;6.07;3.17;;;6.20;46.40;;;;;;5018117;28;46716;-80
2023/10/05 02:08:47;;;;;;;8.73;3.30;;;6.20;45.20;;;;;;5018296;28;46838;-80
2023/10/05 02:11:23;;;;;;;7.83;3.03;;;6.20;45.20;;;;;;5016003;28;46577;-79
2023/10/05 02:13:49;;;;;;;9.83;3.70;;;6.20;45.00;;;;;;5016373;28;46714;-80
2023/10/05 02:16:21;;;;;;;8.50;3.80;;;6.30;45.00;;;;;;5015851;28;46467;-79
2023/10/05 02:18:50;;;;;;;5.77;3.20;;;6.30;45.10;;;;;;5016938;28;47087;-79
2023/10/05 02:21:28;;;;;;;9.30;3.60;;;6.30;44.90;;;;;;5016706;28;46468;-80
2023/10/05 02:23:57;;;;;;;11.83;3.50;;;6.40;45.00;;;;;;5018316;28;46866;-83
2023/10/05 02:26:33;;;;;;;12.00;3.80;;;6.40;44.70;;;;;;5017741;28;46727;-82
2023/10/05 02:28:59;;;;;;;6.03;3.07;;;6.50;44.70;;;;;;5002871;28;48748;-81
2023/10/05 02:31:28;;;;;;;9.73;3.50;;;6.50;44.50;;;;;;5021521;28;46433;-83
2023/10/05 02:33:55;;;;;;;9.23;3.67;;;6.60;44.60;;;;;;5003093;28;47144;-84
2023/10/05 02:36:26;;;;;;;8.83;3.13;;;6.60;44.40;;;;;;5021565;28;46879;-80
2023/10/05 02:38:53;;;;;;;7.20;3.13;;;6.60;44.50;;;;;;5018219;28;46491;-80
2023/10/05 02:41:37;;;;;;;9.60;3.47;;;6.60;44.60;;;;;;5018357;28;46840;-80
2023/10/05 02:44:08;;;;;;;8.37;3.30;;;6.60;44.60;;;;;;4991428;28;46573;-79
2023/10/05 02:46:33;;;;;;;5.73;3.30;;;6.60;44.60;;;;;;5001551;28;46519;-80
2023/10/05 02:48:59;;;;;;;6.77;2.80;;;6.50;44.60;;;;;;5020618;28;47287;-80
2023/10/05 02:51:25;;;;;;;7.83;3.17;;;6.50;44.70;;;;;;5022490;28;46453;-79
2023/10/05 02:53:55;;;;;;;5.20;2.83;;;6.60;44.70;;;;;;5007311;28;46468;-81
2023/10/05 02:56:33;;;;;;;5.07;2.23;;;6.60;44.60;;;;;;5004204;28;46524;-83
2023/10/05 02:59:09;;;;;;;6.97;2.87;;;6.60;44.60;;;;;;5003759;28;49325;-81
2023/10/05 03:01:37;;;;;;;5.30;2.43;;;6.60;44.70;;;;;;5022707;28;46463;-80
2023/10/05 03:04:09;;;;;;;6.70;2.70;;;6.50;44.60;;;;;;5017841;28;46624;-78
2023/10/05 03:06:35;;;;;;;8.90;2.63;;;6.50;44.60;;;;;;5000399;28;46962;-80
2023/10/05 03:09:07;;;;;;;7.30;3.00;;;6.50;44.60;;;;;;5003806;28;47165;-81
2023/10/05 03:11:36;;;;;;;4.73;2.30;;;6.50;44.60;;;;;;5020456;28;46023;-80
2023/10/05 03:14:02;;;;;;;5.50;3.00;;;6.60;44.70;;;;;;5004768;28;46447;-84
2023/10/05 03:16:29;;;;;;;6.03;2.90;;;6.60;44.70;;;;;;5003510;28;46529;-81
2023/10/05 03:18:54;;;;;;;4.97;2.80;;;6.60;44.70;;;;;;5003657;28;47427;-82
2023/10/05 03:21:21;;;;;;;7.53;3.30;;;6.60;44.50;;;;;;5020727;28;46372;-81
2023/10/05 03:23:47;;;;;;;5.43;2.60;;;6.60;44.60;;;;;;5022701;28;46614;-81
2023/10/05 03:26:16;;;;;;;5.77;2.40;;;6.60;44.60;;;;;;5021445;28;45963;-80
2023/10/05 03:28:42;;;;;;;9.77;3.30;;;6.60;44.70;;;;;;5021066;28;46433;-80
2023/10/05 03:31:24;;;;;;;4.60;2.80;;;6.50;44.70;;;;;;5021139;28;46498;-80
2023/10/05 03:33:52;;;;;;;6.87;2.47;;;6.50;44.80;;;;;;5022774;28;46575;-80
2023/10/05 03:36:17;;;;;;;7.40;2.53;;;6.50;44.80;;;;;;4996104;28;46392;-80
2023/10/05 03:38:43;;;;;;;5.90;2.87;;;6.50;44.90;;;;;;5002822;28;48316;-80
2023/10/05 03:41:15;;;;;;;5.63;2.50;;;6.50;44.90;;;;;;5022966;28;46739;-81
2023/10/05 03:43:43;;;;;;;8.97;3.60;;;6.50;45.00;;;;;;5025324;28;45832;-80
2023/10/05 03:46:09;;;;;;;7.27;2.77;;;6.40;45.00;;;;;;5021822;28;46780;-80
2023/10/05 03:48:38;;;;;;;6.80;2.77;;;6.40;45.20;;;;;;5004251;28;48546;-80
2023/10/05 03:51:16;;;;;;;5.23;2.80;;;6.40;45.30;;;;;;5022131;28;46710;-81
2023/10/05 03:53:48;;;;;;;7.50;3.23;;;6.40;45.50;;;;;;5021378;28;46647;-82
2023/10/05 03:56:17;;;;;;;10.20;3.50;;;6.40;45.50;;;;;;5021429;28;46850;-82
2023/10/05 03:58:44;;;;;;;5.93;3.50;;;6.40;45.70;;;;;;5020969;28;46531;-79
2023/10/05 04:01:11;;;;;;;6.97;3.40;;;6.30;46.90;;;;;;5021599;28;46500;-82
2023/10/05 04:03:38;;;;;;;8.10;2.90;;;6.40;45.80;;;;;;5022358;28;47084;-78
2023/10/05 04:06:16;;;;;;;8.90;2.70;;;6.40;45.90;;;;;;5022647;28;45912;-80
2023/10/05 04:08:43;;;;;;;7.77;2.97;;;6.40;46.50;;;;;;5022433;28;46685;-80
2023/10/05 04:11:09;;;;;;;3.70;2.60;;;6.30;45.70;;;;;;5010242;28;46601;-81
2023/10/05 04:13:35;;;;;;;6.83;2.60;;;6.30;45.70;;;;;;5004744;28;46463;-83
2023/10/05 04:16:01;;;;;;;7.67;3.47;;;6.40;46.00;;;;;;5005063;28;46850;-79
2023/10/05 04:18:29;;;;;;;5.40;2.83;;;6.30;45.70;;;;;;5023008;28;46535;-83
2023/10/05 04:20:57;;;;;;;8.87;2.93;;;6.30;45.70;;;;;;5024034;28;46632;-80
2023/10/05 04:23:25;;;;;;;5.07;2.80;;;6.30;45.90;;;;;;5007375;28;46344;-83
2023/10/05 04:25:52;;;;;;;6.60;3.20;;;6.20;47.20;;;;;;5023966;28;46212;-79
2023/10/05 04:28:29;;;;;;;3.90;2.30;;;6.20;46.20;;;;;;5019210;28;46581;-79
2023/10/05 04:30:57;;;;;;;5.37;2.50;;;6.20;46.30;;;;;;5023645;28;46530;-81
2023/10/05 04:33:22;;;;;;;6.30;3.00;;;6.20;47.60;;;;;;5020189;28;46870;-79
2023/10/05 04:35:52;;;;;;;7.77;3.60;;;6.20;46.30;;;;;;5021869;28;46660;-81
2023/10/05 04:38:22;;;;;;;8.13;3.27;;;6.20;46.50;;;;;;5018248;28;47504;-82
2023/10/05 04:40:54;;;;;;;6.97;3.70;;;6.20;46.40;;;;;;5000708;28;47523;-82
2023/10/05 04:43:21;;;;;;;9.50;3.20;;;6.30;46.30;;;;;;5003739;28;46700;-80
2023/10/05 04:45:47;;;;;;;13.07;3.83;;;6.30;46.30;;;;;;5021684;28;46671;-82
2023/10/05 04:48:13;;;;;;;6.73;3.60;;;6.30;46.20;;;;;;5021899;28;47008;-80
2023/10/05 04:50:42;;;;;;;7.47;3.27;;;6.30;46.40;;;;;;5004841;28;45900;-79
2023/10/05 04:53:13;;;;;;;7.80;3.20;;;6.30;46.50;;;;;;5024098;28;46712;-80
2023/10/05 04:55:42;;;;;;;7.97;3.23;;;6.30;46.60;;;;;;5023397;28;46555;-81
2023/10/05 04:58:24;;;;;;;9.70;4.13;;;6.30;46.60;;;;;;4989015;28;47102;-81
2023/10/05 05:06:12;;;;;;;5.63;2.80;;;6.30;46.60;;;;;;5003657;28;46768;-80
2023/10/05 05:08:41;;;;;;;7.37;3.00;;;6.30;46.70;;;;;;4999783;28;47654;-81
2023/10/05 05:11:11;;;;;;;5.40;2.80;;;6.20;46.90;;;;;;4991121;28;46407;-81
2023/10/05 05:13:38;;;;;;;6.03;3.20;;;6.10;47.20;;;;;;4991965;28;46398;-82
2023/10/05 05:16:05;;;;;;;9.00;3.23;;;6.20;47.50;;;;;;4999092;28;47335;-83
2023/10/05 05:18:31;;;;;;;7.33;3.40;;;6.20;47.60;;;;;;5000624;28;49053;-79
2023/10/05 05:20:57;;;;;;;5.77;2.93;;;6.20;47.40;;;;;;5001921;28;46826;-81
2023/10/05 05:23:23;;;;;;;11.57;4.30;;;6.20;47.20;;;;;;5002894;28;46586;-80
2023/10/05 05:25:51;;;;;;;6.17;3.10;;;6.30;47.00;;;;;;5004582;28;46650;-80
2023/10/05 05:28:17;;;;;;;13.70;4.03;;;6.30;47.00;;;;;;5002577;28;46544;-81
2023/10/05 05:30:43;;;;;;;7.63;3.20;;;6.40;47.00;;;;;;5001326;28;46500;-80
2023/10/05 05:33:11;;;;;;;6.10;3.37;;;6.30;47.00;;;;;;5004144;28;46475;-80
2023/10/05 05:35:39;;;;;;;4.93;3.17;;;6.30;47.10;;;;;;5002107;28;46698;-81
2023/10/05 05:38:09;;;;;;;8.20;3.50;;;6.30;47.20;;;;;;5000843;28;47171;-80
2023/10/05 05:40:36;;;;;;;12.23;3.20;;;6.30;47.20;;;;;;5001670;28;46468;-77
2023/10/05 05:43:07;;;;;;;7.10;3.37;;;6.40;47.40;;;;;;5005379;28;46393;-79
2023/10/05 05:45:34;;;;;;;6.30;3.17;;;6.40;47.30;;;;;;5004619;28;47169;-81
2023/10/05 05:48:00;;;;;;;6.73;2.77;;;6.50;47.30;;;;;;5001028;28;47566;-81
2023/10/05 05:50:29;;;;;;;6.90;3.23;;;6.50;47.20;;;;;;5001536;28;46496;-84
2023/10/05 05:52:56;;;;;;;7.07;2.60;;;6.60;47.10;;;;;;5002142;28;46466;-84
2023/10/05 05:55:22;;;;;;;5.40;3.30;;;6.70;47.10;;;;;;5001623;28;46235;-83
2023/10/05 05:57:50;;;;;;;8.13;3.63;;;6.70;46.90;;;;;;5002957;28;46427;-81
2023/10/05 06:00:18;;;;;;;5.47;3.53;;;6.80;46.70;;;;;;5005163;28;46459;-80
2023/10/05 06:02:44;;;;;;;5.80;3.17;;;6.90;46.50;;;;;;5003953;28;46830;-83
2023/10/05 06:05:13;;;;;;;5.50;2.90;;;7.00;46.40;;;;;;5004978;28;46838;-84
2023/10/05 06:07:40;;;;;;;5.97;3.20;;;7.10;46.30;;;;;;4995242;28;48534;-82
2023/10/05 06:10:13;;;;;;;8.90;3.50;;;7.20;46.10;;;;;;5005585;28;46916;-81
2023/10/05 06:12:40;;;;;;;9.80;4.97;;;7.30;45.80;;;;;;5005953;28;47076;-82
2023/10/05 06:15:06;;;;;;;11.23;5.20;;;7.60;45.20;;;;;;5001175;28;45856;-81
2023/10/05 06:17:34;;;;;;;13.67;5.97;;;7.80;44.50;;;;;;4998584;28;49713;-81
2023/10/05 06:20:02;;;;;;;9.60;4.80;;;8.10;43.70;;;;;;5000839;28;46511;-81
2023/10/05 06:22:27;;;;;;;9.03;4.50;;;8.60;43.10;;;;;;4997172;28;46473;-81
2023/10/05 06:24:53;;;;;;;13.43;4.50;;;8.80;42.30;;;;;;5002644;28;46531;-82
2023/10/05 06:27:18;;;;;;;8.07;3.60;;;9.00;41.80;;;;;;4999508;28;46908;-81
2023/10/05 06:29:44;;;;;;;12.57;4.57;;;9.20;41.30;;;;;;5001577;28;46491;-81
2023/10/05 06:32:10;;;;;;;12.23;3.60;;;9.40;41.20;;;;;;4998246;28;46451;-82
2023/10/05 06:34:38;;;;;;;5.70;3.00;;;9.70;41.10;;;;;;5004657;28;46466;-81
2023/10/05 06:37:04;;;;;;;7.23;3.60;;;9.80;40.70;;;;;;5000445;28;46788;-82
2023/10/05 06:39:30;;;;;;;7.13;3.83;;;9.90;40.70;;;;;;5000618;28;46470;-81
2023/10/05 06:41:57;;;;;;;8.20;3.60;;;10.10;39.80;;;;;;4999872;28;46549;-82
2023/10/05 06:44:23;;;;;;;11.13;3.63;;;10.10;39.70;;;;;;5002221;28;45895;-82
2023/10/05 06:46:49;;;;;;;13.90;4.20;;;10.20;39.80;;;;;;5000740;28;49403;-82
2023/10/05 06:49:15;;;;;;;6.97;3.83;;;10.30;39.70;;;;;;5001235;28;46359;-82
2023/10/05 06:51:45;;;;;;;9.90;4.60;;;10.40;39.90;;;;;;5004366;28;46382;-83
2023/10/05 06:54:11;;;;;;;10.93;4.10;;;10.50;39.80;;;;;;5003144;28;46665;-83
2023/10/05 06:56:39;;;;;;;14.60;4.33;;;10.60;39.70;;;;;;5000769;28;47863;-81
2023/10/05 06:59:04;;;;;;;7.87;3.40;;;10.80;39.50;;;;;;5003150;28;46482;-81
2023/10/05 07:01:34;;;;;;;10.10;4.10;;;11.00;39.40;;;;;;5002189;28;45872;-83
2023/10/05 07:04:01;;;;;;;8.87;4.43;;;11.20;39.50;;;;;;5001705;28;46722;-83
2023/10/05 07:06:29;;;;;;;9.70;4.70;;;11.30;39.70;;;;;;5002632;28;46495;-82
2023/10/05 07:08:55;;;;;;;10.50;4.07;;;11.50;39.80;;;;;;5002673;28;46648;-82
2023/10/05 07:11:22;;;;;;;7.67;3.67;;;11.60;39.40;;;;;;5000572;28;46385;-81
2023/10/05 07:13:48;;;;;;;7.57;4.20;;;11.60;39.90;;;;;;5001570;28;46348;-81
2023/10/05 07:16:15;;;;;;;7.90;4.50;;;11.70;40.00;;;;;;5002092;28;46845;-82
2023/10/05 07:18:41;;;;;;;8.80;4.70;;;11.70;40.00;;;;;;4999222;28;46388;-81
2023/10/05 07:21:09;;;;;;;13.20;5.50;;;11.80;40.00;;;;;;5001343;28;46585;-78
2023/10/05 07:23:39;;;;;;;9.10;4.50;;;12.00;40.20;;;;;;4998905;28;46376;-80
2023/10/05 07:26:06;;;;;;;9.90;3.90;;;12.20;40.20;;;;;;4998939;28;46789;-79
2023/10/05 07:28:33;;;;;;;12.53;4.37;;;12.40;39.40;;;;;;4997883;28;46508;-81
2023/10/05 07:30:59;;;;;;;9.50;4.80;;;12.70;39.10;;;;;;4997778;28;45972;-82
2023/10/05 07:33:25;;;;;;;6.80;4.00;;;13.00;38.70;;;;;;5001665;28;46815;-84
2023/10/05 07:35:53;;;;;;;7.83;3.93;;;13.40;38.10;;;;;;4998526;28;46719;-81
2023/10/05 07:38:19;;;;;;;8.63;4.20;;;13.60;37.70;;;;;;5002202;28;45855;-79
2023/10/05 07:40:44;;;;;;;10.50;4.23;;;13.60;37.90;;;;;;4995599;28;46511;-79
2023/10/05 07:43:10;;;;;;;8.50;4.20;;;13.50;37.90;;;;;;4995919;28;46510;-79
2023/10/05 07:45:37;;;;;;;11.33;4.03;;;13.60;38.00;;;;;;4997349;28;46820;-80
2023/10/05 07:48:04;;;;;;;7.57;4.20;;;13.50;38.30;;;;;;4994562;28;46834;-79
2023/10/05 07:50:31;;;;;;;14.03;4.77;;;13.60;38.30;;;;;;4993800;28;46810;-80
2023/10/05 07:52:58;;;;;;;16.40;5.13;;;13.60;38.10;;;;;;5002408;28;46675;-81
2023/10/05 07:55:24;;;;;;;9.57;4.70;;;13.70;37.80;;;;;;5004493;28;46448;-81
2023/10/05 07:57:53;;;;;;;10.37;4.27;;;13.80;37.70;;;;;;5005815;28;46538;-82
2023/10/05 08:00:20;;;;;;;8.00;4.40;;;14.00;37.40;;;;;;4999866;28;46487;-79
2023/10/05 08:02:46;;;;;;;7.83;4.27;;;14.30;38.10;;;;;;4995858;28;46408;-80
2023/10/05 08:05:12;;;;;;;11.97;4.77;;;14.50;36.30;;;;;;4998838;28;47428;-79
2023/10/05 08:07:38;;;;;;;8.70;4.20;;;14.70;36.00;;;;;;4997613;28;46483;-79
2023/10/05 08:10:06;;;;;;;8.27;4.50;;;14.80;35.70;;;;;;4999511;28;46387;-80
2023/10/05 08:12:32;;;;;;;7.93;4.30;;;14.80;35.60;;;;;;4998570;28;46605;-81
2023/10/05 08:14:57;;;;;;;14.50;4.97;;;14.90;35.30;;;;;;4988718;28;49328;-79
2023/10/05 08:17:23;;;;;;;9.43;4.90;;;15.00;34.90;;;;;;4997077;28;46442;-77
2023/10/05 08:19:49;;;;;;;12.93;5.23;;;15.20;34.80;;;;;;5000772;28;46522;-83
2023/10/05 08:22:18;;;;;;;13.03;4.90;;;15.30;34.40;;;;;;4998981;28;47077;-83
2023/10/05 08:24:43;;;;;;;14.70;5.13;;;15.50;34.00;;;;;;4999152;28;46592;-82
2023/10/05 08:27:14;;;;;;;9.37;5.30;;;15.70;34.00;;;;;;5000650;28;46456;-83
2023/10/05 08:29:42;;;;;;;9.47;4.70;;;15.70;34.10;;;;;;4994798;28;46943;-82
2023/10/05 08:32:07;;;;;;;10.40;5.20;;;15.80;33.90;;;;;;5002792;28;46459;-85
2023/10/05 08:34:33;;;;;;;10.97;5.03;;;15.80;33.70;;;;;;5001675;28;46836;-82
2023/10/05 08:37:01;;;;;;;8.93;4.60;;;15.60;33.90;;;;;;4997132;28;46410;-84
2023/10/05 08:39:27;;;;;;;12.17;5.17;;;15.60;34.10;;;;;;4999029;28;46509;-85
2023/10/05 08:42:11;;;;;;;8.13;4.70;;;15.60;34.20;;;;;;4998241;28;46459;-84
2023/10/05 08:44:42;;;;;;;12.80;5.57;;;15.50;34.40;;;;;;4996716;28;47505;-81
2023/10/05 08:47:13;;;;;;;11.80;4.80;;;15.30;34.60;;;;;;4994215;28;46336;-84
2023/10/05 08:49:43;;;;;;;13.23;5.53;;;15.20;35.20;;;;;;4994116;28;45956;-84
2023/10/05 08:52:14;;;;;;;13.50;5.83;;;15.10;35.50;;;;;;4992091;28;46519;-84
2023/10/05 08:54:40;;;;;;;14.53;5.27;;;15.00;35.90;;;;;;4994308;28;46900;-83
2023/10/05 08:57:12;;;;;;;8.07;5.10;;;14.80;36.40;;;;;;4997578;28;46426;-82
2023/10/05 08:59:39;;;;;;;11.20;5.20;;;14.60;36.70;;;;;;4997210;28;46541;-83
2023/10/05 09:02:07;;;;;;;12.67;5.93;;;14.60;37.40;;;;;;4983230;28;46559;-80
2023/10/05 09:04:47;;;;;;;9.10;5.47;;;14.50;37.90;;;;;;4994671;28;46547;-85
2023/10/05 09:07:34;;;;;;;10.43;5.97;;;14.70;38.20;;;;;;4996169;28;46862;-85
2023/10/05 09:10:00;;;;;;;13.57;5.93;;;14.90;38.10;;;;;;4997246;28;46638;-84
2023/10/05 09:12:37;;;;;;;14.17;5.13;;;15.00;37.80;;;;;;4994839;28;47002;-85
2023/10/05 09:17:56;;;;;;;10.97;5.80;;;15.30;37.00;;;;;;4994731;28;46479;-84
2023/10/05 09:20:23;;;;;;;12.43;5.80;;;15.60;36.40;;;;;;4999086;28;46628;-83
2023/10/05 09:22:50;;;;;;;15.73;6.30;;;15.80;35.90;;;;;;5001506;28;46541;-82
2023/10/05 09:25:26;;;;;;;12.00;6.30;;;15.90;35.50;;;;;;4999114;28;46746;-83
2023/10/05 09:28:19;;;;;;;10.33;5.50;;;16.00;35.00;;;;;;4997943;28;46582;-87
2023/10/05 09:30:55;;;;;;;10.30;5.70;;;15.80;35.00;;;;;;4998749;28;46753;-84
2023/10/05 09:33:36;;;;;;;11.53;5.60;;;15.70;35.40;;;;;;4995061;28;46589;-85
2023/10/05 09:36:22;;;;;;;14.10;6.00;;;15.80;35.60;;;;;;4997959;28;48091;-82
2023/10/05 09:38:48;;;;;;;11.10;5.33;;;15.90;35.50;;;;;;5002750;28;46652;-86
2023/10/05 09:41:18;;;;;;;11.20;5.53;;;16.00;35.20;;;;;;4999356;28;46462;-79
2023/10/05 09:43:44;;;;;;;16.07;6.07;;;16.20;34.80;;;;;;4994010;28;46661;-80
2023/10/05 09:46:11;;;;;;;11.20;5.53;;;16.20;34.30;;;;;;4988749;28;49090;-80
2023/10/05 09:48:38;;;;;;;12.60;5.90;;;16.30;34.10;;;;;;4996409;28;46611;-81
2023/10/05 09:51:08;;;;;;;10.57;5.77;;;16.60;33.90;;;;;;4994216;28;46707;-81
2023/10/05 09:53:35;;;;;;;11.97;5.10;;;16.90;32.60;;;;;;4995674;28;46471;-81
2023/10/05 09:56:02;;;;;;;12.63;5.30;;;17.30;31.60;;;;;;4997282;28;46678;-81
2023/10/05 09:58:28;;;;;;;8.57;5.10;;;17.60;30.90;;;;;;4994788;28;46638;-79
2023/10/05 10:00:56;;;;;;;11.27;5.00;;;17.60;29.70;;;;;;4995227;28;46737;-78
2023/10/05 10:03:22;;;;;;;13.50;5.10;;;17.40;29.40;;;;;;4996126;28;46872;-82
2023/10/05 10:06:10;;;;;;;14.10;5.07;;;17.40;29.80;;;;;;4994633;28;47550;-81
2023/10/05 10:08:50;;;;;;;8.43;4.63;;;17.40;29.90;;;;;;4995859;28;46410;-79
2023/10/05 10:11:18;;;;;;;10.60;4.83;;;17.50;29.80;;;;;;4992513;28;46851;-78
2023/10/05 10:14:09;;;;;;;12.30;5.37;;;17.50;29.30;;;;;;4992701;28;47120;-81
2023/10/05 10:16:39;;;;;;;9.70;4.73;;;17.30;29.10;;;;;;4995933;28;46384;-80
2023/10/05 10:19:19;;;;;;;9.47;4.60;;;17.20;29.10;;;;;;4995756;28;46999;-83
2023/10/05 10:21:57;;;;;;;17.13;4.50;;;17.30;29.30;;;;;;4994703;28;46502;-81
2023/10/05 10:24:28;;;;;;;13.57;5.30;;;17.40;29.10;;;;;;4993629;28;46466;-80
2023/10/05 10:27:07;;;;;;;12.13;4.60;;;17.50;28.30;;;;;;4994777;28;47545;-80
2023/10/05 10:29:55;;;;;;;13.30;4.70;;;17.50;27.80;;;;;;4997735;28;46645;-81
2023/10/05 10:32:24;;;;;;;13.70;5.03;;;17.70;27.40;;;;;;4992618;28;47144;-81
2023/10/05 10:35:07;;;;;;;13.80;5.07;;;17.70;26.40;;;;;;4995952;28;46463;-82
2023/10/05 10:37:42;;;;;;;10.10;4.73;;;18.00;26.20;;;;;;4994067;28;47386;-84
2023/10/05 10:40:25;;;;;;;9.10;4.70;;;18.20;25.50;;;;;;4992898;28;46736;-84
2023/10/05 10:45:33;;;;;;;10.03;4.93;;;18.40;24.70;;;;;;4994154;28;46555;-81
2023/10/05 10:47:59;;;;;;;10.90;4.80;;;18.70;24.20;;;;;;5000081;28;46684;-82
2023/10/05 10:50:30;;;;;;;9.57;4.47;;;18.60;23.90;;;;;;4995833;28;46598;-82
2023/10/05 10:52:58;;;;;;;9.90;4.17;;;18.90;23.40;;;;;;4997719;28;47557;-82
2023/10/05 10:55:31;;;;;;;8.30;3.80;;;19.10;22.20;;;;;;4999355;28;45995;-80
2023/10/05 10:57:59;;;;;;;9.60;3.93;;;18.90;21.70;;;;;;4996130;28;47964;-81
2023/10/05 11:03:11;;;;;;;9.33;3.90;;;19.20;22.80;;;;;;4989195;28;46668;-81
2023/10/05 11:05:39;;;;;;;14.50;4.70;;;19.10;21.80;;;;;;4995175;28;46613;-79
2023/10/05 11:08:07;;;;;;;9.80;4.20;;;18.90;21.60;;;;;;4995948;28;46746;-86
2023/10/05 11:10:33;;;;;;;8.93;3.87;;;18.90;21.70;;;;;;4999169;28;46534;-81
2023/10/05 11:13:43;;;;;;;10.67;4.23;;;18.70;21.00;;;;;;4992391;28;46589;-82
2023/10/05 11:16:03;;;;;;;12.83;4.50;;;18.80;20.80;;;;;;4996842;28;46425;-82
2023/10/05 11:18:42;;;;;;;9.93;3.63;;;18.70;19.40;;;;;;4996198;28;47409;-83
2023/10/05 11:21:18;;;;;;;6.63;3.40;;;18.40;19.10;;;;;;4990583;28;46791;-78
2023/10/05 11:23:57;;;;;;;8.23;3.93;;;18.50;20.00;;;;;;4981108;28;46695;-79
2023/10/05 11:26:56;;;;;;;11.77;3.50;;;18.40;19.50;;;;;;4996591;28;46831;-78
2023/10/05 11:29:28;;;;;;;7.70;3.67;;;18.40;18.90;;;;;;4998038;28;48960;-80
2023/10/05 11:32:01;;;;;;;5.77;3.00;;;18.30;19.30;;;;;;4999349;28;46510;-80
2023/10/05 11:34:29;;;;;;;10.17;3.93;;;18.20;19.30;;;;;;4998283;28;45853;-81
2023/10/05 11:36:59;;;;;;;10.90;4.10;;;18.30;19.60;;;;;;4999298;28;46638;-80
2023/10/05 11:39:27;;;;;;;8.93;3.90;;;18.40;19.50;;;;;;5002403;28;46888;-83
2023/10/05 11:41:58;;;;;;;8.00;3.47;;;18.70;19.10;;;;;;4997784;28;46769;-83
2023/10/05 11:44:24;;;;;;;7.70;3.70;;;18.70;18.20;;;;;;5002895;28;46422;-82
2023/10/05 11:46:53;;;;;;;12.93;4.40;;;18.40;18.30;;;;;;5001630;28;46554;-83
2023/10/05 11:49:20;;;;;;;7.30;3.50;;;18.40;17.90;;;;;;5001640;28;46681;-82
2023/10/05 11:52:00;;;;;;;8.60;3.10;;;18.30;18.60;;;;;;5006551;28;46567;-81
2023/10/05 11:54:33;;;;;;;9.70;3.03;;;18.40;18.20;;;;;;5009433;28;46488;-81
2023/10/05 11:57:05;;;;;;;11.67;3.33;;;18.30;18.20;;;;;;5002785;28;46443;-82
2023/10/05 11:59:35;;;;;;;9.43;3.20;;;18.20;17.70;;;;;;4998098;28;48313;-81
2023/10/05 12:02:01;;;;;;;11.27;3.50;;;18.30;17.90;;;;;;5000629;28;46496;-80
2023/10/05 12:04:27;;;;;;;12.03;3.70;;;18.60;17.60;;;;;;5001892;28;46482;-80
2023/10/05 12:07:01;;;;;;;7.80;3.33;;;18.90;17.30;;;;;;4998877;28;47227;-81
2023/10/05 12:09:36;;;;;;;7.70;3.23;;;18.80;16.10;;;;;;5001441;28;47897;-79
2023/10/05 12:12:03;;;;;;;7.27;3.47;;;18.70;15.90;;;;;;5002646;28;46426;-80
2023/10/05 12:14:29;;;;;;;6.03;2.63;;;18.50;16.00;;;;;;4999203;28;46499;-81
2023/10/05 12:16:56;;;;;;;9.53;2.90;;;18.60;16.30;;;;;;4999213;28;46491;-80
2023/10/05 12:19:28;;;;;;;10.73;4.10;;;18.80;16.50;;;;;;5001525;28;47142;-82
2023/10/05 12:21:59;;;;;;;11.57;3.40;;;18.80;16.20;;;;;;5000453;28;46471;-80
2023/10/05 12:24:26;;;;;;;7.17;3.00;;;18.80;15.90;;;;;;5000598;28;46503;-81
2023/10/05 12:26:52;;;;;;;11.30;3.90;;;18.90;16.30;;;;;;4998585;28;46883;-80
2023/10/05 12:29:18;;;;;;;14.23;2.93;;;19.10;16.10;;;;;;5000148;28;46797;-81
2023/10/05 12:31:46;;;;;;;8.73;2.87;;;19.40;16.00;;;;;;4997901;28;46426;-79
2023/10/05 12:34:16;;;;;;;6.50;2.77;;;19.50;15.70;;;;;;4999949;28;46840;-80
2023/10/05 12:36:48;;;;;;;7.73;3.20;;;19.40;15.30;;;;;;5000446;28;46716;-80
2023/10/05 12:39:14;;;;;;;10.90;3.60;;;19.70;15.20;;;;;;4998631;28;46633;-81
2023/10/05 12:41:42;;;;;;;14.00;3.93;;;19.80;15.30;;;;;;4999340;28;46729;-80
2023/10/05 12:44:09;;;;;;;10.90;4.00;;;19.60;15.20;;;;;;4998388;28;46523;-80
2023/10/05 12:46:39;;;;;;;11.53;3.97;;;19.40;15.40;;;;;;4999804;28;46418;-80
2023/10/05 12:49:07;;;;;;;6.47;3.63;;;19.40;15.70;;;;;;4999495;28;47927;-81
2023/10/05 12:51:36;;;;;;;10.30;3.33;;;19.40;15.90;;;;;;5001206;28;46613;-80
2023/10/05 12:54:05;;;;;;;10.43;3.83;;;19.40;15.70;;;;;;5000144;28;46813;-80
2023/10/05 12:56:30;;;;;;;10.97;3.27;;;19.50;15.40;;;;;;5001540;28;46249;-81
2023/10/05 12:58:56;;;;;;;13.13;4.10;;;19.60;15.10;;;;;;5005766;28;46238;-83
2023/10/05 13:01:26;;;;;;;7.07;3.83;;;19.50;14.90;;;;;;5011406;28;46330;-83
2023/10/05 13:03:51;;;;;;;9.67;4.17;;;19.20;15.20;;;;;;5008909;28;46488;-82
2023/10/05 13:06:17;;;;;;;9.60;3.73;;;19.20;15.50;;;;;;5005135;28;46685;-82
2023/10/05 13:08:43;;;;;;;7.70;2.77;;;19.20;15.60;;;;;;5000174;28;47945;-80
2023/10/05 13:11:11;;;;;;;10.20;4.10;;;19.20;15.40;;;;;;4998741;28;46931;-80
2023/10/05 13:13:39;;;;;;;6.50;3.30;;;19.10;15.70;;;;;;4998081;28;46539;-82
2023/10/05 13:16:13;;;;;;;11.90;4.20;;;19.10;15.90;;;;;;4999512;28;47071;-79
2023/10/05 13:18:44;;;;;;;7.90;3.80;;;19.00;16.00;;;;;;4998830;28;46874;-81